createdAt,value
2017-06-22T00:02:05.963Z,11.30
2017-06-22T00:04:33.471Z,12.17
2017-06-22T00:07:00.991Z,12.97
2017-06-22T00:09:28.499Z,13.90
2017-06-22T00:11:56.032Z,12.63
2017-06-22T00:14:24.307Z,13.07
2017-06-22T00:16:51.819Z,11.83
2017-06-22T00:19:19.343Z,13.43
2017-06-22T00:21:46.851Z,12.23
2017-06-22T00:24:14.380Z,12.17
2017-06-22T00:26:41.903Z,11.87
2017-06-22T00:29:09.427Z,12.50
2017-06-22T00:31:36.936Z,12.13
2017-06-22T00:34:04.442Z,11.90
2017-06-22T00:36:31.971Z,12.87
2017-06-22T00:38:59.479Z,11.63
2017-06-22T00:41:27.011Z,12.07
2017-06-22T00:43:54.514Z,11.90
2017-06-22T00:46:22.028Z,11.80
2017-06-22T00:48:49.550Z,11.63
2017-06-22T00:51:17.055Z,11.77
2017-06-22T00:53:44.583Z,12.00
2017-06-22T00:56:12.087Z,12.53
2017-06-22T00:58:40.375Z,12.60
2017-06-22T01:01:07.888Z,12.00
2017-06-22T01:03:35.403Z,11.37
2017-06-22T01:06:02.931Z,11.40
2017-06-22T01:08:30.434Z,11.90
2017-06-22T01:10:57.953Z,12.20
2017-06-22T01:13:25.463Z,12.63
2017-06-22T01:15:52.987Z,11.37
2017-06-22T01:18:20.510Z,12.50
2017-06-22T01:20:48.018Z,12.30
2017-06-22T01:23:15.542Z,12.60
2017-06-22T01:25:43.056Z,13.37
2017-06-22T01:28:10.562Z,12.73
2017-06-22T01:30:38.086Z,12.50
2017-06-22T01:33:05.587Z,12.20
2017-06-22T01:35:33.877Z,13.23
2017-06-22T01:38:01.386Z,12.77
2017-06-22T01:40:28.915Z,12.60
2017-06-22T01:42:56.439Z,12.20
2017-06-22T01:45:24.712Z,13.10
2017-06-22T01:47:53.006Z,12.03
2017-06-22T01:50:20.520Z,13.63
2017-06-22T01:52:48.042Z,14.70
2017-06-22T01:55:15.566Z,13.67
2017-06-22T01:57:43.840Z,13.93
2017-06-22T02:00:12.132Z,13.90
2017-06-22T02:02:39.643Z,13.43
2017-06-22T02:05:07.175Z,14.73
2017-06-22T02:07:34.683Z,12.33
2017-06-22T02:10:02.192Z,13.83
2017-06-22T02:12:29.719Z,13.50
2017-06-22T02:14:57.225Z,13.67
2017-06-22T02:17:24.756Z,12.97
2017-06-22T02:19:52.274Z,13.67
2017-06-22T02:22:19.803Z,14.50
2017-06-22T02:24:47.327Z,14.20
2017-06-22T02:27:14.835Z,14.33
2017-06-22T02:29:42.363Z,13.47
2017-06-22T02:32:09.876Z,13.97
2017-06-22T02:34:38.195Z,13.33
2017-06-22T02:37:05.702Z,13.60
2017-06-22T02:39:33.218Z,13.93
2017-06-22T02:42:00.748Z,14.23
2017-06-22T02:44:28.254Z,14.53
2017-06-22T02:46:55.783Z,15.40
2017-06-22T02:49:23.295Z,14.03
2017-06-22T02:51:50.803Z,14.60
2017-06-22T02:54:18.326Z,14.10
2017-06-22T02:56:45.835Z,13.70
2017-06-22T02:59:13.367Z,14.53
2017-06-22T03:01:40.871Z,13.00
2017-06-22T03:04:08.378Z,13.87
2017-06-22T03:06:35.903Z,13.30
2017-06-22T03:09:03.411Z,15.37
2017-06-22T03:11:30.938Z,13.73
2017-06-22T03:13:58.446Z,14.63
2017-06-22T03:16:25.950Z,14.50
2017-06-22T03:18:53.475Z,14.70
2017-06-22T03:21:20.982Z,13.23
2017-06-22T03:23:48.503Z,14.23
2017-06-22T03:26:16.779Z,14.10
2017-06-22T03:28:45.070Z,15.00
2017-06-22T03:31:12.579Z,14.07
2017-06-22T03:33:40.239Z,15.03
2017-06-22T03:36:07.784Z,14.57
2017-06-22T03:38:35.291Z,14.90
2017-06-22T03:41:03.596Z,14.17
2017-06-22T03:43:31.107Z,15.50
2017-06-22T03:45:58.615Z,14.73
2017-06-22T03:48:26.140Z,14.77
2017-06-22T03:50:53.647Z,15.20
2017-06-22T03:53:21.171Z,15.10
2017-06-22T03:55:49.444Z,15.73
2017-06-22T03:58:16.987Z,14.73
2017-06-22T04:00:44.495Z,13.67
2017-06-22T04:03:11.999Z,14.60
2017-06-22T04:05:39.527Z,15.00
2017-06-22T04:08:07.030Z,14.90
2017-06-22T04:10:34.566Z,14.17
2017-06-22T04:13:02.073Z,14.40
2017-06-22T04:15:29.583Z,14.70
2017-06-22T04:17:57.107Z,14.43
2017-06-22T04:20:24.613Z,14.63
2017-06-22T04:22:52.150Z,14.30
2017-06-22T04:25:19.667Z,14.17
2017-06-22T04:27:47.180Z,14.13
2017-06-22T04:30:14.707Z,14.33
2017-06-22T04:32:42.211Z,13.00
2017-06-22T04:35:09.743Z,13.27
2017-06-22T04:37:37.250Z,13.10
2017-06-22T04:40:04.759Z,12.93
2017-06-22T04:42:32.300Z,13.27
2017-06-22T04:44:59.811Z,13.40
2017-06-22T04:47:28.113Z,13.97
2017-06-22T04:49:55.627Z,12.93
2017-06-22T04:52:23.155Z,13.47
2017-06-22T04:54:50.667Z,14.03
2017-06-22T04:57:18.938Z,13.07
2017-06-22T04:59:47.247Z,13.07
2017-06-22T05:02:14.761Z,13.70
2017-06-22T05:04:42.287Z,13.50
2017-06-22T05:07:09.791Z,13.37
2017-06-22T05:09:38.082Z,12.97
2017-06-22T05:12:05.600Z,14.50
2017-06-22T05:14:33.107Z,14.57
2017-06-22T05:17:00.636Z,14.23
2017-06-22T05:19:28.144Z,14.43
2017-06-22T05:21:55.675Z,15.37
2017-06-22T05:24:23.179Z,13.00
2017-06-22T05:26:50.723Z,14.77
2017-06-22T05:29:18.243Z,15.60
2017-06-22T05:31:45.757Z,14.00
2017-06-22T05:34:13.279Z,14.63
2017-06-22T05:36:40.788Z,14.37
2017-06-22T05:39:08.308Z,14.40
2017-06-22T05:41:35.814Z,14.27
2017-06-22T05:44:04.163Z,14.67
2017-06-22T05:46:31.667Z,13.93
2017-06-22T05:48:59.947Z,14.40
2017-06-22T05:51:27.471Z,13.77
2017-06-22T05:53:54.978Z,17.17
2017-06-22T05:56:22.502Z,16.00
2017-06-22T05:58:50.012Z,16.50
2017-06-22T06:01:17.538Z,16.03
2017-06-22T06:03:45.047Z,17.47
2017-06-22T06:06:12.562Z,17.20
2017-06-22T06:08:40.091Z,16.97
2017-06-22T06:11:07.591Z,16.67
2017-06-22T06:13:35.123Z,16.40
2017-06-22T06:16:02.638Z,15.47
2017-06-22T06:18:30.180Z,15.03
2017-06-22T06:20:57.683Z,14.50
2017-06-22T06:23:25.192Z,14.70
2017-06-22T06:25:52.715Z,15.80
2017-06-22T06:28:20.988Z,13.47
2017-06-22T06:30:49.287Z,14.63
2017-06-22T06:33:16.799Z,14.40
2017-06-22T06:35:44.303Z,15.63
2017-06-22T06:38:11.823Z,15.13
2017-06-22T06:40:39.333Z,13.57
2017-06-22T06:43:06.859Z,14.00
2017-06-22T06:45:35.130Z,13.17
2017-06-22T06:48:02.666Z,15.37
2017-06-22T06:50:30.170Z,14.93
2017-06-22T06:52:57.678Z,14.87
2017-06-22T06:55:25.200Z,14.63
2017-06-22T06:57:52.711Z,14.90
2017-06-22T07:00:21.003Z,14.77
2017-06-22T07:02:48.515Z,15.03
2017-06-22T07:05:16.040Z,15.93
2017-06-22T07:07:43.551Z,15.93
2017-06-22T07:10:11.100Z,14.60
2017-06-22T07:12:38.607Z,15.60
2017-06-22T07:15:06.121Z,14.57
2017-06-22T07:17:33.644Z,14.90
2017-06-22T07:20:01.147Z,14.67
2017-06-22T07:22:28.666Z,14.60
2017-06-22T07:24:56.167Z,14.20
2017-06-22T07:27:23.711Z,14.60
2017-06-22T07:29:51.246Z,14.57
2017-06-22T07:32:18.746Z,15.10
2017-06-22T07:34:47.036Z,15.17
2017-06-22T07:37:15.314Z,14.67
2017-06-22T07:39:43.600Z,13.53
2017-06-22T07:42:11.111Z,13.30
2017-06-22T07:44:38.646Z,15.53
2017-06-22T07:47:06.150Z,14.33
2017-06-22T07:49:33.663Z,13.37
2017-06-22T07:52:01.188Z,14.47
2017-06-22T07:54:28.695Z,13.63
2017-06-22T07:56:56.226Z,13.90
2017-06-22T07:59:23.744Z,13.90
2017-06-22T08:01:52.030Z,11.67
2017-06-22T08:04:20.310Z,12.27
2017-06-22T08:06:48.599Z,13.17
2017-06-22T08:09:16.122Z,13.03
2017-06-22T08:11:43.630Z,12.93
2017-06-22T08:14:11.155Z,12.13
2017-06-22T08:16:38.663Z,12.43
2017-06-22T08:19:06.185Z,12.70
2017-06-22T08:21:33.713Z,14.50
2017-06-22T08:24:01.238Z,14.37
2017-06-22T08:26:28.758Z,13.63
2017-06-22T08:28:56.275Z,13.20
2017-06-22T08:31:23.798Z,13.80
2017-06-22T08:33:51.308Z,13.50
2017-06-22T08:36:18.839Z,13.80
2017-06-22T08:38:46.350Z,13.80
2017-06-22T08:41:13.867Z,12.93
2017-06-22T08:43:41.394Z,12.37
2017-06-22T08:46:08.906Z,12.70
2017-06-22T08:48:37.203Z,14.07
2017-06-22T08:51:04.724Z,13.17
2017-06-22T08:53:32.251Z,13.40
2017-06-22T08:55:59.760Z,13.27
2017-06-22T08:58:28.038Z,12.80
2017-06-22T09:00:56.325Z,13.53
2017-06-22T09:03:23.830Z,12.57
2017-06-22T09:05:51.359Z,13.17
2017-06-22T09:08:18.923Z,13.13
2017-06-22T09:10:46.475Z,12.30
2017-06-22T09:13:13.986Z,13.33
2017-06-22T09:15:41.502Z,12.60
2017-06-22T09:18:09.043Z,12.13
2017-06-22T09:20:36.586Z,12.83
2017-06-22T09:23:04.893Z,13.00
2017-06-22T09:25:32.631Z,13.00
2017-06-22T09:28:00.241Z,12.60
2017-06-22T09:30:27.812Z,13.83
2017-06-22T09:32:55.341Z,12.27
2017-06-22T09:35:22.887Z,14.00
2017-06-22T09:37:50.398Z,12.83
2017-06-22T09:40:17.919Z,12.87
2017-06-22T09:42:45.432Z,13.20
2017-06-22T09:45:13.730Z,12.97
2017-06-22T09:47:41.255Z,11.93
2017-06-22T09:50:08.766Z,12.87
2017-06-22T09:52:36.293Z,12.00
2017-06-22T09:55:04.571Z,12.00
2017-06-22T09:57:32.865Z,12.23
2017-06-22T10:00:00.386Z,12.70
2017-06-22T10:02:27.930Z,11.90
2017-06-22T10:04:55.435Z,13.17
2017-06-22T10:07:22.942Z,12.83
2017-06-22T10:09:50.467Z,12.50
2017-06-22T10:12:17.974Z,12.47
2017-06-22T10:14:45.500Z,12.20
2017-06-22T10:17:13.013Z,11.57
2017-06-22T10:19:41.344Z,12.57
2017-06-22T10:22:08.847Z,12.23
2017-06-22T10:24:37.121Z,11.87
2017-06-22T10:27:05.410Z,13.13
2017-06-22T10:29:32.919Z,12.97
2017-06-22T10:32:00.447Z,11.83
2017-06-22T10:34:27.957Z,12.20
2017-06-22T10:36:55.504Z,12.90
2017-06-22T10:39:23.011Z,12.13
2017-06-22T10:41:50.519Z,12.10
2017-06-22T10:44:18.243Z,12.60
2017-06-22T10:46:45.755Z,11.23
2017-06-22T10:49:14.052Z,12.20
2017-06-22T10:51:42.328Z,11.80
2017-06-22T10:54:09.872Z,12.17
2017-06-22T10:56:38.146Z,12.23
2017-06-22T10:59:05.651Z,12.53
2017-06-22T11:01:33.172Z,10.90
2017-06-22T11:04:01.446Z,10.80
2017-06-22T11:06:29.736Z,10.63
2017-06-22T11:08:57.243Z,11.53
2017-06-22T11:11:24.774Z,10.60
2017-06-22T11:13:52.283Z,10.23
2017-06-22T11:16:19.788Z,11.80
2017-06-22T11:18:47.306Z,9.97
2017-06-22T11:21:15.579Z,11.70
2017-06-22T11:23:43.099Z,10.83
2017-06-22T11:26:10.611Z,11.30
2017-06-22T11:28:38.907Z,11.17
2017-06-22T11:31:06.414Z,11.00
2017-06-22T11:33:33.918Z,11.67
2017-06-22T11:36:01.441Z,12.10
2017-06-22T11:38:28.947Z,12.20
2017-06-22T11:40:56.479Z,10.77
2017-06-22T11:43:24.759Z,10.60
2017-06-22T11:45:52.307Z,11.87
2017-06-22T11:48:19.823Z,11.57
2017-06-22T11:50:47.339Z,11.70
2017-06-22T11:53:14.876Z,11.30
2017-06-22T11:55:42.399Z,11.63
2017-06-22T11:58:09.922Z,12.73
2017-06-22T12:00:37.435Z,11.20
2017-06-22T12:03:04.959Z,10.20
2017-06-22T12:05:32.464Z,9.93
2017-06-22T12:07:59.973Z,10.60
2017-06-22T12:10:27.501Z,10.50
2017-06-22T12:12:55.771Z,10.43
2017-06-22T12:15:24.063Z,10.60
2017-06-22T12:17:51.574Z,9.37
2017-06-22T12:20:19.103Z,10.07
2017-06-22T12:22:46.607Z,10.57
2017-06-22T12:25:14.111Z,10.53
2017-06-22T12:27:41.639Z,9.27
2017-06-22T12:30:09.906Z,8.70
2017-06-22T12:32:38.200Z,8.73
2017-06-22T12:35:06.466Z,9.53
2017-06-22T12:37:34.762Z,9.83
2017-06-22T12:40:02.275Z,8.60
2017-06-22T12:42:29.834Z,7.60
2017-06-22T12:44:57.391Z,6.53
2017-06-22T12:47:24.887Z,8.57
2017-06-22T12:49:53.166Z,7.90
2017-06-22T12:52:20.667Z,8.20
2017-06-22T12:54:48.191Z,8.33
2017-06-22T12:57:15.691Z,8.23
2017-06-22T12:59:43.217Z,7.80
2017-06-22T13:02:10.724Z,8.00
2017-06-22T13:04:38.223Z,8.27
2017-06-22T13:07:05.747Z,8.83
2017-06-22T13:09:33.242Z,8.73
2017-06-22T13:12:00.759Z,8.17
2017-06-22T13:14:28.267Z,8.50
2017-06-22T13:16:55.799Z,7.83
2017-06-22T13:19:24.067Z,8.13
2017-06-22T13:21:52.335Z,8.00
2017-06-22T13:24:19.855Z,8.87
2017-06-22T13:26:47.360Z,8.10
2017-06-22T13:29:15.647Z,7.80
2017-06-22T13:31:43.147Z,7.30
2017-06-22T13:34:10.647Z,8.70
2017-06-22T13:36:38.935Z,8.53
2017-06-22T13:39:07.203Z,9.20
2017-06-22T13:41:35.487Z,8.27
2017-06-22T13:44:03.759Z,9.20
2017-06-22T13:46:32.044Z,8.30
2017-06-22T13:48:59.547Z,8.30
2017-06-22T13:51:27.048Z,7.97
2017-06-22T13:53:55.618Z,8.63
2017-06-22T13:56:23.116Z,9.20
2017-06-22T13:58:50.643Z,8.93
2017-06-22T14:01:18.930Z,8.83
2017-06-22T14:03:46.478Z,9.80
2017-06-22T14:06:14.747Z,8.17
2017-06-22T14:08:42.255Z,9.00
2017-06-22T14:11:09.786Z,8.77
2017-06-22T14:13:37.315Z,8.50
2017-06-22T14:16:04.836Z,8.40
2017-06-22T14:18:32.339Z,9.63
2017-06-22T14:20:59.874Z,9.83
2017-06-22T14:23:27.375Z,8.97
2017-06-22T14:25:54.879Z,9.27
2017-06-22T14:28:22.399Z,9.43
2017-06-22T14:30:49.904Z,8.73
2017-06-22T14:33:17.427Z,9.03
2017-06-22T14:35:44.934Z,9.10
2017-06-22T14:38:12.454Z,9.17
2017-06-22T14:40:39.966Z,9.10
2017-06-22T14:43:07.471Z,8.10
2017-06-22T14:45:34.998Z,10.27
2017-06-22T14:48:03.271Z,10.00
2017-06-22T14:50:31.559Z,9.00
2017-06-22T14:52:59.064Z,9.97
2017-06-22T14:55:26.591Z,9.10
2017-06-22T14:57:54.099Z,9.50
2017-06-22T15:00:21.609Z,9.33
2017-06-22T15:02:49.131Z,9.73
2017-06-22T15:05:17.394Z,9.30
2017-06-22T15:07:44.911Z,8.93
2017-06-22T15:10:12.410Z,8.90
2017-06-22T15:12:39.935Z,8.50
2017-06-22T15:15:07.440Z,9.83
2017-06-22T15:17:35.710Z,10.23
2017-06-22T15:20:03.249Z,10.10
2017-06-22T15:22:30.759Z,9.67
2017-06-22T15:24:58.289Z,10.10
2017-06-22T15:27:26.566Z,10.40
2017-06-22T15:29:54.855Z,9.53
2017-06-22T15:32:23.131Z,8.80
2017-06-22T15:34:51.408Z,9.50
2017-06-22T15:37:18.935Z,9.63
2017-06-22T15:39:46.444Z,9.87
2017-06-22T15:42:13.983Z,9.57
2017-06-22T15:44:42.251Z,9.70
2017-06-22T15:47:10.535Z,9.90
2017-06-22T15:49:38.807Z,9.40
2017-06-22T15:52:07.083Z,10.20
2017-06-22T15:54:35.374Z,10.17
2017-06-22T15:57:02.891Z,10.87
2017-06-22T15:59:30.415Z,10.63
2017-06-22T16:01:57.923Z,9.93
2017-06-22T16:04:26.212Z,11.10
2017-06-22T16:06:54.487Z,13.43
2017-06-22T16:09:22.759Z,10.87
2017-06-22T16:11:51.050Z,11.30
2017-06-22T16:14:18.560Z,10.70
2017-06-22T16:16:46.083Z,12.23
2017-06-22T16:19:13.648Z,12.53
2017-06-22T16:21:41.167Z,12.93
2017-06-22T16:24:09.442Z,13.80
2017-06-22T16:26:36.947Z,11.23
2017-06-22T16:29:04.471Z,12.00
2017-06-22T16:31:32.743Z,11.57
2017-06-22T16:34:01.033Z,11.20
2017-06-22T16:36:28.543Z,10.83
2017-06-22T16:38:56.076Z,11.40
2017-06-22T16:41:23.583Z,12.00
2017-06-22T16:43:51.859Z,11.23
2017-06-22T16:46:20.155Z,12.17
2017-06-22T16:48:47.659Z,11.30
2017-06-22T16:51:15.202Z,12.00
2017-06-22T16:53:42.715Z,11.67
2017-06-22T16:56:11.002Z,13.30
2017-06-22T16:58:39.306Z,12.10
2017-06-22T17:01:06.810Z,12.40
2017-06-22T17:03:34.336Z,12.80
2017-06-22T17:06:01.840Z,13.20
2017-06-22T17:08:30.136Z,12.87
2017-06-22T17:10:57.687Z,13.80
2017-06-22T17:13:25.964Z,23.70
2017-06-22T17:15:53.500Z,72.93
2017-06-22T17:18:21.780Z,26.00
2017-06-22T17:20:49.304Z,16.43
2017-06-22T17:23:17.152Z,14.03
2017-06-22T17:25:44.656Z,14.43
2017-06-22T17:28:12.179Z,14.20
2017-06-22T17:30:40.514Z,13.67
2017-06-22T17:33:08.803Z,13.53
2017-06-22T17:35:36.315Z,13.73
2017-06-22T17:38:03.855Z,13.40
2017-06-22T17:40:31.360Z,17.47
2017-06-22T17:42:59.634Z,20.20
2017-06-22T17:45:27.926Z,19.40
2017-06-22T17:47:55.435Z,16.83
2017-06-22T17:50:22.967Z,15.20
2017-06-22T17:52:50.475Z,14.90
2017-06-22T17:55:17.988Z,14.80
2017-06-22T17:57:45.506Z,15.37
2017-06-22T18:00:13.789Z,14.40
2017-06-22T18:02:42.084Z,16.23
2017-06-22T18:05:09.591Z,15.00
2017-06-22T18:07:37.100Z,14.50
2017-06-22T18:10:04.623Z,15.60
2017-06-22T18:12:32.130Z,14.67
2017-06-22T18:14:59.651Z,15.50
2017-06-22T18:17:27.921Z,15.83
2017-06-22T18:19:56.215Z,15.47
2017-06-22T18:22:23.734Z,15.70
2017-06-22T18:24:51.239Z,16.23
2017-06-22T18:27:18.764Z,15.83
2017-06-22T18:29:47.040Z,16.40
2017-06-22T18:32:14.559Z,15.10
2017-06-22T18:34:42.068Z,16.23
2017-06-22T18:37:10.339Z,15.57
2017-06-22T18:39:38.630Z,15.30
2017-06-22T18:42:06.903Z,15.53
2017-06-22T18:44:35.198Z,15.07
2017-06-22T18:47:02.707Z,14.77
2017-06-22T18:49:30.221Z,16.13
2017-06-22T18:51:57.743Z,15.97
2017-06-22T18:54:25.251Z,15.20
2017-06-22T18:56:52.779Z,15.17
2017-06-22T18:59:20.287Z,15.00
2017-06-22T19:01:47.795Z,15.90
2017-06-22T19:04:15.319Z,16.27
2017-06-22T19:06:42.826Z,16.53
2017-06-22T19:09:10.363Z,15.83
2017-06-22T19:11:38.639Z,15.90
2017-06-22T19:14:06.911Z,16.20
2017-06-22T19:16:35.208Z,14.73
2017-06-22T19:19:02.724Z,14.47
2017-06-22T19:21:30.251Z,15.20
2017-06-22T19:23:57.759Z,15.50
2017-06-22T19:26:26.035Z,15.17
2017-06-22T19:28:54.323Z,15.33
2017-06-22T19:31:21.835Z,15.70
2017-06-22T19:33:49.368Z,14.43
2017-06-22T19:36:16.880Z,14.43
2017-06-22T19:38:45.157Z,14.20
2017-06-22T19:41:13.456Z,16.17
2017-06-22T19:43:40.959Z,15.57
2017-06-22T19:46:08.483Z,16.40
2017-06-22T19:48:35.991Z,16.70
2017-06-22T19:51:03.495Z,16.47
2017-06-22T19:53:31.025Z,16.20
2017-06-22T19:55:58.531Z,16.00
2017-06-22T19:58:26.055Z,16.27
2017-06-22T20:00:54.329Z,16.67
2017-06-22T20:03:22.623Z,16.10
2017-06-22T20:05:50.133Z,16.83
2017-06-22T20:08:17.638Z,16.93
2017-06-22T20:10:45.160Z,16.53
2017-06-22T20:13:12.671Z,17.10
2017-06-22T20:15:40.199Z,15.80
2017-06-22T20:18:08.475Z,15.57
2017-06-22T20:20:35.983Z,15.90
2017-06-22T20:23:03.515Z,15.53
2017-06-22T20:25:31.022Z,15.37
2017-06-22T20:27:58.555Z,15.70
2017-06-22T20:30:26.062Z,15.93
2017-06-22T20:32:54.340Z,16.10
2017-06-22T20:35:22.627Z,16.67
2017-06-22T20:37:50.187Z,16.23
2017-06-22T20:40:17.723Z,16.87
2017-06-22T20:42:45.999Z,16.20
2017-06-22T20:45:14.272Z,16.60
2017-06-22T20:47:41.798Z,15.40
2017-06-22T20:50:09.307Z,16.30
2017-06-22T20:52:36.832Z,15.87
2017-06-22T20:55:04.343Z,15.80
2017-06-22T20:57:31.852Z,16.37
2017-06-22T20:59:59.375Z,16.80
2017-06-22T21:02:26.883Z,15.60
2017-06-22T21:04:55.180Z,17.40
2017-06-22T21:07:22.691Z,15.73
2017-06-22T21:09:50.219Z,16.60
2017-06-22T21:12:17.749Z,16.10
2017-06-22T21:14:46.024Z,17.13
2017-06-22T21:17:14.317Z,15.07
2017-06-22T21:19:41.835Z,16.63
2017-06-22T21:22:09.363Z,15.73
2017-06-22T21:24:36.897Z,15.40
2017-06-22T21:27:04.415Z,15.43
2017-06-22T21:29:31.946Z,15.10
2017-06-22T21:31:59.452Z,13.70
2017-06-22T21:34:27.738Z,14.23
2017-06-22T21:36:55.258Z,15.30
2017-06-22T21:39:22.772Z,13.90
2017-06-22T21:41:50.307Z,14.50
2017-06-22T21:44:17.815Z,13.70
2017-06-22T21:46:45.349Z,13.73
2017-06-22T21:49:12.875Z,12.73
2017-06-22T21:51:41.147Z,15.17
2017-06-22T21:54:09.439Z,13.80
2017-06-22T21:56:36.951Z,13.23
2017-06-22T21:59:04.471Z,14.83
2017-06-22T22:01:32.000Z,13.90
2017-06-22T22:04:00.279Z,13.53
2017-06-22T22:06:28.568Z,14.90
2017-06-22T22:08:56.086Z,15.27
2017-06-22T22:11:23.617Z,14.57
2017-06-22T22:13:51.126Z,15.50
2017-06-22T22:16:19.403Z,14.27
2017-06-22T22:18:47.695Z,13.43
2017-06-22T22:21:15.204Z,14.30
2017-06-22T22:23:42.732Z,13.40
2017-06-22T22:26:10.246Z,14.33
2017-06-22T22:28:37.819Z,14.60
2017-06-22T22:31:06.091Z,13.20
2017-06-22T22:33:34.370Z,13.87
2017-06-22T22:36:02.671Z,14.50
2017-06-22T22:38:30.180Z,13.17
2017-06-22T22:40:57.710Z,15.03
2017-06-22T22:43:25.222Z,13.40
2017-06-22T22:45:53.520Z,13.87
2017-06-22T22:48:21.027Z,14.10
2017-06-22T22:50:48.540Z,14.10
2017-06-22T22:53:16.064Z,14.20
2017-06-22T22:55:44.338Z,13.87
2017-06-22T22:58:12.630Z,14.70
2017-06-22T23:00:40.137Z,14.63
2017-06-22T23:03:07.673Z,15.10
2017-06-22T23:05:35.183Z,14.27
2017-06-22T23:08:02.695Z,13.90
2017-06-22T23:10:30.223Z,15.03
2017-06-22T23:12:57.731Z,15.20
2017-06-22T23:15:25.259Z,14.60
2017-06-22T23:17:52.767Z,15.33
2017-06-22T23:20:20.299Z,14.20
2017-06-22T23:22:47.814Z,14.30
2017-06-22T23:25:16.091Z,13.97
2017-06-22T23:27:43.614Z,14.73
2017-06-22T23:30:11.123Z,13.60
2017-06-22T23:32:38.649Z,16.07
2017-06-22T23:35:06.159Z,14.50
2017-06-22T23:37:33.692Z,15.03
2017-06-22T23:40:01.207Z,14.57
2017-06-22T23:42:28.714Z,15.83
2017-06-22T23:44:56.247Z,14.87
2017-06-22T23:47:24.520Z,15.07
2017-06-22T23:49:52.811Z,14.83
2017-06-22T23:52:20.319Z,15.00
2017-06-22T23:54:47.851Z,14.13
2017-06-22T23:57:15.366Z,14.73
2017-06-22T23:59:43.648Z,15.10
